BLK weather

Blackpool International Airport
Blackpool, England, United Kingdom

Public forecast

Using degrees Celsius for public forecast. Weather courtesy of forecast.io.

Current aviation weather report (METAR) for Blackpool International Airport

Retrieved 2019/10/21 19:20 UTC (13 minutes ago):

EGNH 211920Z 33008KT CAVOK 09/04 Q1023

Aviation forecast (TAF) for Blackpool International Airport

Forecast is more than 12 hours old.

Retrieved 2019/07/21 18:12 UTC (3 months ago):

TAF TAF EGNH 212309Z 2118/2220 CNL